sensor_id;sensor_type;location;lat;lon;timestamp;P1;durP1;ratioP1;P2;durP2;ratioP2
83814;SDS011;73829;53.826;-3.034;2023-11-21T00:02:29;1.50;;;0.40;;
83814;SDS011;73829;53.826;-3.034;2023-11-21T00:05:00;1.40;;;0.40;;
83814;SDS011;73829;53.826;-3.034;2023-11-21T00:07:31;1.20;;;0.30;;
83814;SDS011;73829;53.826;-3.034;2023-11-21T00:10:02;0.70;;;0.30;;
83814;SDS011;73829;53.826;-3.034;2023-11-21T00:12:34;2.20;;;0.50;;
83814;SDS011;73829;53.826;-3.034;2023-11-21T00:15:07;0.70;;;0.20;;
83814;SDS011;73829;53.826;-3.034;2023-11-21T00:17:39;1.00;;;0.30;;
83814;SDS011;73829;53.826;-3.034;2023-11-21T00:20:11;1.60;;;0.40;;
83814;SDS011;73829;53.826;-3.034;2023-11-21T00:22:42;1.50;;;0.40;;
83814;SDS011;73829;53.826;-3.034;2023-11-21T00:25:14;1.30;;;0.30;;
83814;SDS011;73829;53.826;-3.034;2023-11-21T00:27:45;1.30;;;0.40;;
83814;SDS011;73829;53.826;-3.034;2023-11-21T00:30:16;0.70;;;0.20;;
83814;SDS011;73829;53.826;-3.034;2023-11-21T00:32:50;0.70;;;0.30;;
83814;SDS011;73829;53.826;-3.034;2023-11-21T00:35:21;1.10;;;0.30;;
83814;SDS011;73829;53.826;-3.034;2023-11-21T00:37:52;1.30;;;0.30;;
83814;SDS011;73829;53.826;-3.034;2023-11-21T00:40:23;1.30;;;0.30;;
83814;SDS011;73829;53.826;-3.034;2023-11-21T00:42:54;1.20;;;0.30;;
83814;SDS011;73829;53.826;-3.034;2023-11-21T00:45:25;1.20;;;0.30;;
83814;SDS011;73829;53.826;-3.034;2023-11-21T00:47:56;0.70;;;0.20;;
83814;SDS011;73829;53.826;-3.034;2023-11-21T00:50:27;1.60;;;0.40;;
83814;SDS011;73829;53.826;-3.034;2023-11-21T00:52:58;1.10;;;0.30;;
83814;SDS011;73829;53.826;-3.034;2023-11-21T00:55:30;1.10;;;0.40;;
83814;SDS011;73829;53.826;-3.034;2023-11-21T00:58:01;0.90;;;0.30;;
83814;SDS011;73829;53.826;-3.034;2023-11-21T01:00:32;1.00;;;0.30;;
83814;SDS011;73829;53.826;-3.034;2023-11-21T01:03:03;1.10;;;0.30;;
83814;SDS011;73829;53.826;-3.034;2023-11-21T01:05:35;0.60;;;0.20;;
83814;SDS011;73829;53.826;-3.034;2023-11-21T01:08:06;1.60;;;0.20;;
83814;SDS011;73829;53.826;-3.034;2023-11-21T01:10:38;1.00;;;0.30;;
83814;SDS011;73829;53.826;-3.034;2023-11-21T01:13:09;1.20;;;0.30;;
83814;SDS011;73829;53.826;-3.034;2023-11-21T01:15:40;1.20;;;0.20;;
83814;SDS011;73829;53.826;-3.034;2023-11-21T01:18:11;1.20;;;0.40;;
83814;SDS011;73829;53.826;-3.034;2023-11-21T01:20:42;1.10;;;0.30;;
83814;SDS011;73829;53.826;-3.034;2023-11-21T01:23:14;1.80;;;0.30;;
83814;SDS011;73829;53.826;-3.034;2023-11-21T01:25:45;0.70;;;0.20;;
83814;SDS011;73829;53.826;-3.034;2023-11-21T01:28:16;1.00;;;0.20;;
83814;SDS011;73829;53.826;-3.034;2023-11-21T01:30:47;1.40;;;0.40;;
83814;SDS011;73829;53.826;-3.034;2023-11-21T01:33:18;0.90;;;0.20;;
83814;SDS011;73829;53.826;-3.034;2023-11-21T01:35:49;0.50;;;0.20;;
83814;SDS011;73829;53.826;-3.034;2023-11-21T01:38:22;1.00;;;0.20;;
83814;SDS011;73829;53.826;-3.034;2023-11-21T01:40:53;0.80;;;0.20;;
83814;SDS011;73829;53.826;-3.034;2023-11-21T01:43:24;0.60;;;0.20;;
83814;SDS011;73829;53.826;-3.034;2023-11-21T01:45:55;1.40;;;0.30;;
83814;SDS011;73829;53.826;-3.034;2023-11-21T01:48:26;0.70;;;0.20;;
83814;SDS011;73829;53.826;-3.034;2023-11-21T01:50:58;0.90;;;0.20;;
83814;SDS011;73829;53.826;-3.034;2023-11-21T01:53:29;0.80;;;0.20;;
83814;SDS011;73829;53.826;-3.034;2023-11-21T01:56:01;1.10;;;0.20;;
83814;SDS011;73829;53.826;-3.034;2023-11-21T01:58:32;1.00;;;0.30;;
83814;SDS011;73829;53.826;-3.034;2023-11-21T02:01:03;1.10;;;0.40;;
83814;SDS011;73829;53.826;-3.034;2023-11-21T02:03:35;0.70;;;0.20;;
83814;SDS011;73829;53.826;-3.034;2023-11-21T02:06:07;0.90;;;0.30;;
83814;SDS011;73829;53.826;-3.034;2023-11-21T02:08:38;0.40;;;0.10;;
83814;SDS011;73829;53.826;-3.034;2023-11-21T02:11:12;0.80;;;0.30;;
83814;SDS011;73829;53.826;-3.034;2023-11-21T02:13:43;0.80;;;0.30;;
83814;SDS011;73829;53.826;-3.034;2023-11-21T02:16:15;0.80;;;0.30;;
83814;SDS011;73829;53.826;-3.034;2023-11-21T02:18:46;0.80;;;0.40;;
83814;SDS011;73829;53.826;-3.034;2023-11-21T02:21:17;0.20;;;0.10;;
83814;SDS011;73829;53.826;-3.034;2023-11-21T02:23:48;1.40;;;0.20;;
83814;SDS011;73829;53.826;-3.034;2023-11-21T02:26:19;0.80;;;0.20;;
83814;SDS011;73829;53.826;-3.034;2023-11-21T02:28:50;1.60;;;0.20;;
83814;SDS011;73829;53.826;-3.034;2023-11-21T02:31:22;0.50;;;0.10;;
83814;SDS011;73829;53.826;-3.034;2023-11-21T02:33:53;1.10;;;0.30;;
83814;SDS011;73829;53.826;-3.034;2023-11-21T02:36:24;0.20;;;0.10;;
83814;SDS011;73829;53.826;-3.034;2023-11-21T02:38:55;0.50;;;0.20;;
83814;SDS011;73829;53.826;-3.034;2023-11-21T02:41:26;0.30;;;0.10;;
83814;SDS011;73829;53.826;-3.034;2023-11-21T02:43:58;0.20;;;0.10;;
83814;SDS011;73829;53.826;-3.034;2023-11-21T02:46:29;1.40;;;0.30;;
83814;SDS011;73829;53.826;-3.034;2023-11-21T02:49:01;1.10;;;0.20;;
83814;SDS011;73829;53.826;-3.034;2023-11-21T02:51:33;0.90;;;0.40;;
83814;SDS011;73829;53.826;-3.034;2023-11-21T02:54:06;0.70;;;0.20;;
83814;SDS011;73829;53.826;-3.034;2023-11-21T02:56:37;1.20;;;0.30;;
83814;SDS011;73829;53.826;-3.034;2023-11-21T02:59:08;0.80;;;0.20;;
83814;SDS011;73829;53.826;-3.034;2023-11-21T03:01:39;0.90;;;0.30;;
83814;SDS011;73829;53.826;-3.034;2023-11-21T03:04:10;1.00;;;0.30;;
83814;SDS011;73829;53.826;-3.034;2023-11-21T03:06:45;1.10;;;0.20;;
83814;SDS011;73829;53.826;-3.034;2023-11-21T03:09:16;0.90;;;0.10;;
83814;SDS011;73829;53.826;-3.034;2023-11-21T03:11:47;0.30;;;0.10;;
83814;SDS011;73829;53.826;-3.034;2023-11-21T03:14:18;0.50;;;0.20;;
83814;SDS011;73829;53.826;-3.034;2023-11-21T03:16:49;0.60;;;0.10;;
83814;SDS011;73829;53.826;-3.034;2023-11-21T03:19:20;1.00;;;0.20;;
83814;SDS011;73829;53.826;-3.034;2023-11-21T03:21:51;0.70;;;0.20;;
83814;SDS011;73829;53.826;-3.034;2023-11-21T03:24:22;0.60;;;0.10;;
83814;SDS011;73829;53.826;-3.034;2023-11-21T03:26:54;0.80;;;0.20;;
83814;SDS011;73829;53.826;-3.034;2023-11-21T03:29:25;0.60;;;0.10;;
83814;SDS011;73829;53.826;-3.034;2023-11-21T03:31:56;1.10;;;0.30;;
83814;SDS011;73829;53.826;-3.034;2023-11-21T03:34:27;1.20;;;0.20;;
83814;SDS011;73829;53.826;-3.034;2023-11-21T03:36:58;1.00;;;0.20;;
83814;SDS011;73829;53.826;-3.034;2023-11-21T03:39:29;0.60;;;0.40;;
83814;SDS011;73829;53.826;-3.034;2023-11-21T03:42:01;1.00;;;0.30;;
83814;SDS011;73829;53.826;-3.034;2023-11-21T03:44:32;1.00;;;0.20;;
83814;SDS011;73829;53.826;-3.034;2023-11-21T03:47:03;1.00;;;0.20;;
83814;SDS011;73829;53.826;-3.034;2023-11-21T03:49:34;0.90;;;0.20;;
83814;SDS011;73829;53.826;-3.034;2023-11-21T03:52:05;1.00;;;0.20;;
83814;SDS011;73829;53.826;-3.034;2023-11-21T03:54:37;0.90;;;0.20;;
83814;SDS011;73829;53.826;-3.034;2023-11-21T03:57:08;0.10;;;0.00;;
83814;SDS011;73829;53.826;-3.034;2023-11-21T03:59:40;0.40;;;0.10;;
83814;SDS011;73829;53.826;-3.034;2023-11-21T04:02:12;0.50;;;0.20;;
83814;SDS011;73829;53.826;-3.034;2023-11-21T04:07:12;0.30;;;0.10;;
83814;SDS011;73829;53.826;-3.034;2023-11-21T04:12:13;0.40;;;0.20;;
83814;SDS011;73829;53.826;-3.034;2023-11-21T04:14:44;0.50;;;0.20;;
83814;SDS011;73829;53.826;-3.034;2023-11-21T04:17:17;1.20;;;0.20;;
83814;SDS011;73829;53.826;-3.034;2023-11-21T04:19:48;0.90;;;0.20;;
83814;SDS011;73829;53.826;-3.034;2023-11-21T04:22:19;0.80;;;0.20;;
83814;SDS011;73829;53.826;-3.034;2023-11-21T04:24:50;0.70;;;0.20;;
83814;SDS011;73829;53.826;-3.034;2023-11-21T04:27:22;0.90;;;0.20;;
83814;SDS011;73829;53.826;-3.034;2023-11-21T04:29:53;0.80;;;0.10;;
83814;SDS011;73829;53.826;-3.034;2023-11-21T04:32:25;0.40;;;0.20;;
83814;SDS011;73829;53.826;-3.034;2023-11-21T04:34:56;0.80;;;0.20;;
83814;SDS011;73829;53.826;-3.034;2023-11-21T04:37:27;0.50;;;0.10;;
83814;SDS011;73829;53.826;-3.034;2023-11-21T04:39:58;0.60;;;0.10;;
83814;SDS011;73829;53.826;-3.034;2023-11-21T04:42:29;1.10;;;0.20;;
83814;SDS011;73829;53.826;-3.034;2023-11-21T04:45:00;0.80;;;0.10;;
83814;SDS011;73829;53.826;-3.034;2023-11-21T04:47:36;0.70;;;0.20;;
83814;SDS011;73829;53.826;-3.034;2023-11-21T04:50:07;0.90;;;0.20;;
83814;SDS011;73829;53.826;-3.034;2023-11-21T04:52:39;1.30;;;0.20;;
83814;SDS011;73829;53.826;-3.034;2023-11-21T04:55:10;0.50;;;0.20;;
83814;SDS011;73829;53.826;-3.034;2023-11-21T04:57:41;0.90;;;0.20;;
83814;SDS011;73829;53.826;-3.034;2023-11-21T05:00:13;0.60;;;0.30;;
83814;SDS011;73829;53.826;-3.034;2023-11-21T05:02:45;0.80;;;0.30;;
83814;SDS011;73829;53.826;-3.034;2023-11-21T05:05:17;1.20;;;0.20;;
83814;SDS011;73829;53.826;-3.034;2023-11-21T05:07:48;0.60;;;0.20;;
83814;SDS011;73829;53.826;-3.034;2023-11-21T05:10:21;0.40;;;0.10;;
83814;SDS011;73829;53.826;-3.034;2023-11-21T05:12:52;0.50;;;0.10;;
83814;SDS011;73829;53.826;-3.034;2023-11-21T05:15:23;0.70;;;0.20;;
83814;SDS011;73829;53.826;-3.034;2023-11-21T05:17:55;0.90;;;0.20;;
83814;SDS011;73829;53.826;-3.034;2023-11-21T05:20:28;0.90;;;0.20;;
83814;SDS011;73829;53.826;-3.034;2023-11-21T05:22:58;1.10;;;0.30;;
83814;SDS011;73829;53.826;-3.034;2023-11-21T05:25:30;0.50;;;0.20;;
83814;SDS011;73829;53.826;-3.034;2023-11-21T05:28:01;0.90;;;0.20;;
83814;SDS011;73829;53.826;-3.034;2023-11-21T05:30:32;0.20;;;0.10;;
83814;SDS011;73829;53.826;-3.034;2023-11-21T05:33:03;0.50;;;0.10;;
83814;SDS011;73829;53.826;-3.034;2023-11-21T05:35:34;0.30;;;0.10;;
83814;SDS011;73829;53.826;-3.034;2023-11-21T05:38:05;0.50;;;0.10;;
83814;SDS011;73829;53.826;-3.034;2023-11-21T05:40:36;0.20;;;0.10;;
83814;SDS011;73829;53.826;-3.034;2023-11-21T05:43:07;0.40;;;0.10;;
83814;SDS011;73829;53.826;-3.034;2023-11-21T05:45:39;1.20;;;0.10;;
83814;SDS011;73829;53.826;-3.034;2023-11-21T05:48:10;0.90;;;0.20;;
83814;SDS011;73829;53.826;-3.034;2023-11-21T05:50:42;1.30;;;0.30;;
83814;SDS011;73829;53.826;-3.034;2023-11-21T05:53:13;1.20;;;0.20;;
83814;SDS011;73829;53.826;-3.034;2023-11-21T05:55:44;0.30;;;0.10;;
83814;SDS011;73829;53.826;-3.034;2023-11-21T05:58:15;0.20;;;0.10;;
83814;SDS011;73829;53.826;-3.034;2023-11-21T06:00:46;1.20;;;0.20;;
83814;SDS011;73829;53.826;-3.034;2023-11-21T06:03:17;0.50;;;0.10;;
83814;SDS011;73829;53.826;-3.034;2023-11-21T06:05:48;0.70;;;0.10;;
83814;SDS011;73829;53.826;-3.034;2023-11-21T06:08:19;0.20;;;0.10;;
83814;SDS011;73829;53.826;-3.034;2023-11-21T06:10:50;0.80;;;0.20;;
83814;SDS011;73829;53.826;-3.034;2023-11-21T06:13:21;0.60;;;0.10;;
83814;SDS011;73829;53.826;-3.034;2023-11-21T06:15:53;0.50;;;0.10;;
83814;SDS011;73829;53.826;-3.034;2023-11-21T06:18:24;1.20;;;0.20;;
83814;SDS011;73829;53.826;-3.034;2023-11-21T06:20:55;0.90;;;0.20;;
83814;SDS011;73829;53.826;-3.034;2023-11-21T06:23:26;0.70;;;0.10;;
83814;SDS011;73829;53.826;-3.034;2023-11-21T06:25:57;1.00;;;0.10;;
83814;SDS011;73829;53.826;-3.034;2023-11-21T06:28:28;0.60;;;0.10;;
83814;SDS011;73829;53.826;-3.034;2023-11-21T06:30:59;1.10;;;0.20;;
83814;SDS011;73829;53.826;-3.034;2023-11-21T06:33:32;0.60;;;0.10;;
83814;SDS011;73829;53.826;-3.034;2023-11-21T06:36:04;0.30;;;0.10;;
83814;SDS011;73829;53.826;-3.034;2023-11-21T06:38:36;0.80;;;0.20;;
83814;SDS011;73829;53.826;-3.034;2023-11-21T06:43:36;0.30;;;0.00;;
83814;SDS011;73829;53.826;-3.034;2023-11-21T06:48:36;0.80;;;0.20;;
83814;SDS011;73829;53.826;-3.034;2023-11-21T06:51:07;0.80;;;0.20;;
83814;SDS011;73829;53.826;-3.034;2023-11-21T06:53:38;0.40;;;0.10;;
83814;SDS011;73829;53.826;-3.034;2023-11-21T06:58:46;0.10;;;0.00;;
83814;SDS011;73829;53.826;-3.034;2023-11-21T07:01:21;0.50;;;0.10;;
83814;SDS011;73829;53.826;-3.034;2023-11-21T07:03:52;0.30;;;0.20;;
83814;SDS011;73829;53.826;-3.034;2023-11-21T07:06:23;0.90;;;0.10;;
83814;SDS011;73829;53.826;-3.034;2023-11-21T07:08:54;0.60;;;0.10;;
83814;SDS011;73829;53.826;-3.034;2023-11-21T07:11:26;0.40;;;0.10;;
83814;SDS011;73829;53.826;-3.034;2023-11-21T07:13:57;0.50;;;0.20;;
83814;SDS011;73829;53.826;-3.034;2023-11-21T07:16:30;0.60;;;0.10;;
83814;SDS011;73829;53.826;-3.034;2023-11-21T07:19:02;0.30;;;0.20;;
83814;SDS011;73829;53.826;-3.034;2023-11-21T07:21:34;1.00;;;0.20;;
83814;SDS011;73829;53.826;-3.034;2023-11-21T07:24:06;0.90;;;0.20;;
83814;SDS011;73829;53.826;-3.034;2023-11-21T07:26:39;0.30;;;0.10;;
83814;SDS011;73829;53.826;-3.034;2023-11-21T07:29:10;0.50;;;0.10;;
83814;SDS011;73829;53.826;-3.034;2023-11-21T07:31:41;1.10;;;0.30;;
83814;SDS011;73829;53.826;-3.034;2023-11-21T07:34:12;0.30;;;0.10;;
83814;SDS011;73829;53.826;-3.034;2023-11-21T07:39:12;0.90;;;0.20;;
83814;SDS011;73829;53.826;-3.034;2023-11-21T07:41:44;0.80;;;0.10;;
83814;SDS011;73829;53.826;-3.034;2023-11-21T07:44:16;0.50;;;0.10;;
83814;SDS011;73829;53.826;-3.034;2023-11-21T07:46:48;0.70;;;0.10;;
83814;SDS011;73829;53.826;-3.034;2023-11-21T07:49:19;0.30;;;0.10;;
83814;SDS011;73829;53.826;-3.034;2023-11-21T07:51:51;0.50;;;0.10;;
83814;SDS011;73829;53.826;-3.034;2023-11-21T07:54:21;0.50;;;0.10;;
83814;SDS011;73829;53.826;-3.034;2023-11-21T07:59:22;0.40;;;0.10;;
83814;SDS011;73829;53.826;-3.034;2023-11-21T08:01:53;0.40;;;0.10;;
83814;SDS011;73829;53.826;-3.034;2023-11-21T08:04:23;0.30;;;0.10;;
83814;SDS011;73829;53.826;-3.034;2023-11-21T08:06:55;0.90;;;0.20;;
83814;SDS011;73829;53.826;-3.034;2023-11-21T08:11:55;0.80;;;0.20;;
83814;SDS011;73829;53.826;-3.034;2023-11-21T08:14:28;0.30;;;0.10;;
83814;SDS011;73829;53.826;-3.034;2023-11-21T08:16:59;0.30;;;0.10;;
83814;SDS011;73829;53.826;-3.034;2023-11-21T08:19:31;0.40;;;0.10;;
83814;SDS011;73829;53.826;-3.034;2023-11-21T08:22:02;0.00;;;0.00;;
83814;SDS011;73829;53.826;-3.034;2023-11-21T08:24:36;0.70;;;0.20;;
83814;SDS011;73829;53.826;-3.034;2023-11-21T08:29:36;1.30;;;0.20;;
83814;SDS011;73829;53.826;-3.034;2023-11-21T08:32:07;0.90;;;0.20;;
83814;SDS011;73829;53.826;-3.034;2023-11-21T08:34:38;0.80;;;0.20;;
83814;SDS011;73829;53.826;-3.034;2023-11-21T08:37:11;0.40;;;0.10;;
83814;SDS011;73829;53.826;-3.034;2023-11-21T08:39:43;0.40;;;0.10;;
83814;SDS011;73829;53.826;-3.034;2023-11-21T08:42:16;0.50;;;0.10;;
83814;SDS011;73829;53.826;-3.034;2023-11-21T08:44:47;0.20;;;0.10;;
83814;SDS011;73829;53.826;-3.034;2023-11-21T08:47:18;0.20;;;0.00;;
83814;SDS011;73829;53.826;-3.034;2023-11-21T08:49:52;0.70;;;0.10;;
83814;SDS011;73829;53.826;-3.034;2023-11-21T08:52:23;0.60;;;0.10;;
83814;SDS011;73829;53.826;-3.034;2023-11-21T08:54:54;1.00;;;0.20;;
83814;SDS011;73829;53.826;-3.034;2023-11-21T08:57:25;0.40;;;0.00;;
83814;SDS011;73829;53.826;-3.034;2023-11-21T08:59:56;0.40;;;0.10;;
83814;SDS011;73829;53.826;-3.034;2023-11-21T09:02:27;0.70;;;0.10;;
83814;SDS011;73829;53.826;-3.034;2023-11-21T09:04:58;0.50;;;0.10;;
83814;SDS011;73829;53.826;-3.034;2023-11-21T09:07:30;0.10;;;0.10;;
83814;SDS011;73829;53.826;-3.034;2023-11-21T09:10:01;0.90;;;0.20;;
83814;SDS011;73829;53.826;-3.034;2023-11-21T09:12:35;0.40;;;0.00;;
83814;SDS011;73829;53.826;-3.034;2023-11-21T09:15:07;0.60;;;0.10;;
83814;SDS011;73829;53.826;-3.034;2023-11-21T09:17:39;0.10;;;0.10;;
83814;SDS011;73829;53.826;-3.034;2023-11-21T09:20:11;0.20;;;0.10;;
83814;SDS011;73829;53.826;-3.034;2023-11-21T09:22:43;0.80;;;0.20;;
83814;SDS011;73829;53.826;-3.034;2023-11-21T09:25:14;1.10;;;0.20;;
83814;SDS011;73829;53.826;-3.034;2023-11-21T09:27:46;1.80;;;0.20;;
83814;SDS011;73829;53.826;-3.034;2023-11-21T09:30:17;1.20;;;0.30;;
83814;SDS011;73829;53.826;-3.034;2023-11-21T09:32:48;1.90;;;0.50;;
83814;SDS011;73829;53.826;-3.034;2023-11-21T09:35:19;2.10;;;0.60;;
83814;SDS011;73829;53.826;-3.034;2023-11-21T09:37:50;3.00;;;0.80;;
83814;SDS011;73829;53.826;-3.034;2023-11-21T09:42:54;3.20;;;1.10;;
83814;SDS011;73829;53.826;-3.034;2023-11-21T09:45:26;3.00;;;1.00;;
83814;SDS011;73829;53.826;-3.034;2023-11-21T09:48:02;4.30;;;1.50;;
83814;SDS011;73829;53.826;-3.034;2023-11-21T09:50:34;4.60;;;1.60;;
83814;SDS011;73829;53.826;-3.034;2023-11-21T09:53:09;5.40;;;1.90;;
83814;SDS011;73829;53.826;-3.034;2023-11-21T09:55:44;5.80;;;2.20;;
83814;SDS011;73829;53.826;-3.034;2023-11-21T09:58:16;6.60;;;2.50;;
83814;SDS011;73829;53.826;-3.034;2023-11-21T10:00:50;6.20;;;2.70;;
83814;SDS011;73829;53.826;-3.034;2023-11-21T10:03:24;7.60;;;2.70;;
83814;SDS011;73829;53.826;-3.034;2023-11-21T10:05:55;8.00;;;2.70;;
83814;SDS011;73829;53.826;-3.034;2023-11-21T10:08:28;6.30;;;2.70;;
83814;SDS011;73829;53.826;-3.034;2023-11-21T10:11:01;5.50;;;2.20;;
83814;SDS011;73829;53.826;-3.034;2023-11-21T10:13:34;6.00;;;2.40;;
83814;SDS011;73829;53.826;-3.034;2023-11-21T10:16:06;6.00;;;2.60;;
83814;SDS011;73829;53.826;-3.034;2023-11-21T10:18:39;6.40;;;2.20;;
83814;SDS011;73829;53.826;-3.034;2023-11-21T10:21:14;5.80;;;1.90;;
83814;SDS011;73829;53.826;-3.034;2023-11-21T10:23:45;5.50;;;2.20;;
83814;SDS011;73829;53.826;-3.034;2023-11-21T10:26:17;6.60;;;1.60;;
83814;SDS011;73829;53.826;-3.034;2023-11-21T10:28:57;4.90;;;1.80;;
83814;SDS011;73829;53.826;-3.034;2023-11-21T10:31:29;6.00;;;2.50;;
83814;SDS011;73829;53.826;-3.034;2023-11-21T10:34:14;4.40;;;1.80;;
83814;SDS011;73829;53.826;-3.034;2023-11-21T10:36:46;4.70;;;1.60;;
83814;SDS011;73829;53.826;-3.034;2023-11-21T10:39:18;5.40;;;1.80;;
83814;SDS011;73829;53.826;-3.034;2023-11-21T10:41:51;4.40;;;1.50;;
83814;SDS011;73829;53.826;-3.034;2023-11-21T10:44:23;4.30;;;1.70;;
83814;SDS011;73829;53.826;-3.034;2023-11-21T10:49:25;4.20;;;1.30;;
83814;SDS011;73829;53.826;-3.034;2023-11-21T10:51:57;5.90;;;1.30;;
83814;SDS011;73829;53.826;-3.034;2023-11-21T10:54:28;4.40;;;1.50;;
83814;SDS011;73829;53.826;-3.034;2023-11-21T10:57:00;5.20;;;1.50;;
83814;SDS011;73829;53.826;-3.034;2023-11-21T10:59:33;3.80;;;1.10;;
83814;SDS011;73829;53.826;-3.034;2023-11-21T11:02:06;3.70;;;1.60;;
83814;SDS011;73829;53.826;-3.034;2023-11-21T11:04:49;3.90;;;1.20;;
83814;SDS011;73829;53.826;-3.034;2023-11-21T11:07:21;4.10;;;1.20;;
83814;SDS011;73829;53.826;-3.034;2023-11-21T11:09:55;7.70;;;1.50;;
83814;SDS011;73829;53.826;-3.034;2023-11-21T11:12:27;4.90;;;1.20;;
83814;SDS011;73829;53.826;-3.034;2023-11-21T11:14:58;4.50;;;1.40;;
83814;SDS011;73829;53.826;-3.034;2023-11-21T11:17:30;3.90;;;1.20;;
83814;SDS011;73829;53.826;-3.034;2023-11-21T11:20:02;4.60;;;1.20;;
83814;SDS011;73829;53.826;-3.034;2023-11-21T11:22:40;4.00;;;1.00;;
83814;SDS011;73829;53.826;-3.034;2023-11-21T11:25:27;4.50;;;1.10;;
83814;SDS011;73829;53.826;-3.034;2023-11-21T11:28:10;3.30;;;0.90;;
83814;SDS011;73829;53.826;-3.034;2023-11-21T11:30:47;2.30;;;0.90;;
83814;SDS011;73829;53.826;-3.034;2023-11-21T11:33:34;3.20;;;1.20;;
83814;SDS011;73829;53.826;-3.034;2023-11-21T11:36:13;3.30;;;0.90;;
83814;SDS011;73829;53.826;-3.034;2023-11-21T11:38:51;3.40;;;1.00;;
83814;SDS011;73829;53.826;-3.034;2023-11-21T11:41:25;3.70;;;1.00;;
83814;SDS011;73829;53.826;-3.034;2023-11-21T11:44:00;2.60;;;0.90;;
83814;SDS011;73829;53.826;-3.034;2023-11-21T11:46:42;3.20;;;0.90;;
83814;SDS011;73829;53.826;-3.034;2023-11-21T11:49:24;4.20;;;1.20;;
83814;SDS011;73829;53.826;-3.034;2023-11-21T11:55:05;3.20;;;1.00;;
83814;SDS011;73829;53.826;-3.034;2023-11-21T11:57:39;2.40;;;0.90;;
83814;SDS011;73829;53.826;-3.034;2023-11-21T12:00:17;2.60;;;0.90;;
83814;SDS011;73829;53.826;-3.034;2023-11-21T12:05:40;3.20;;;0.80;;
83814;SDS011;73829;53.826;-3.034;2023-11-21T12:08:13;2.70;;;0.70;;
83814;SDS011;73829;53.826;-3.034;2023-11-21T12:10:47;4.10;;;0.80;;
83814;SDS011;73829;53.826;-3.034;2023-11-21T12:13:20;3.30;;;0.80;;
83814;SDS011;73829;53.826;-3.034;2023-11-21T12:15:51;3.20;;;0.70;;
83814;SDS011;73829;53.826;-3.034;2023-11-21T12:18:23;1.70;;;0.60;;
83814;SDS011;73829;53.826;-3.034;2023-11-21T12:20:55;2.40;;;0.70;;
83814;SDS011;73829;53.826;-3.034;2023-11-21T12:23:26;2.80;;;0.70;;
83814;SDS011;73829;53.826;-3.034;2023-11-21T12:25:57;3.20;;;0.90;;
83814;SDS011;73829;53.826;-3.034;2023-11-21T12:28:28;4.30;;;1.10;;
83814;SDS011;73829;53.826;-3.034;2023-11-21T12:31:00;5.20;;;1.90;;
83814;SDS011;73829;53.826;-3.034;2023-11-21T12:33:31;5.50;;;1.50;;
83814;SDS011;73829;53.826;-3.034;2023-11-21T12:36:03;4.90;;;1.40;;
83814;SDS011;73829;53.826;-3.034;2023-11-21T12:38:38;4.90;;;1.80;;
83814;SDS011;73829;53.826;-3.034;2023-11-21T12:41:10;5.90;;;1.40;;
83814;SDS011;73829;53.826;-3.034;2023-11-21T12:43:41;5.20;;;1.50;;
83814;SDS011;73829;53.826;-3.034;2023-11-21T12:46:12;4.40;;;1.40;;
83814;SDS011;73829;53.826;-3.034;2023-11-21T12:48:45;3.10;;;1.20;;
83814;SDS011;73829;53.826;-3.034;2023-11-21T12:51:16;3.90;;;1.30;;
83814;SDS011;73829;53.826;-3.034;2023-11-21T12:53:47;3.60;;;0.90;;
83814;SDS011;73829;53.826;-3.034;2023-11-21T12:56:19;3.50;;;0.90;;
83814;SDS011;73829;53.826;-3.034;2023-11-21T12:58:53;3.90;;;1.00;;
83814;SDS011;73829;53.826;-3.034;2023-11-21T13:01:26;4.60;;;1.30;;
83814;SDS011;73829;53.826;-3.034;2023-11-21T13:03:58;3.30;;;1.00;;
83814;SDS011;73829;53.826;-3.034;2023-11-21T13:06:30;3.40;;;1.00;;
83814;SDS011;73829;53.826;-3.034;2023-11-21T13:09:06;3.40;;;1.00;;
83814;SDS011;73829;53.826;-3.034;2023-11-21T13:11:38;4.00;;;1.10;;
83814;SDS011;73829;53.826;-3.034;2023-11-21T13:14:11;4.30;;;1.00;;
83814;SDS011;73829;53.826;-3.034;2023-11-21T13:16:42;4.00;;;0.90;;
83814;SDS011;73829;53.826;-3.034;2023-11-21T13:19:14;4.30;;;1.00;;
83814;SDS011;73829;53.826;-3.034;2023-11-21T13:24:14;4.80;;;0.90;;
83814;SDS011;73829;53.826;-3.034;2023-11-21T13:26:45;4.10;;;0.90;;
83814;SDS011;73829;53.826;-3.034;2023-11-21T13:29:17;3.90;;;1.30;;
83814;SDS011;73829;53.826;-3.034;2023-11-21T13:31:48;3.00;;;1.00;;
83814;SDS011;73829;53.826;-3.034;2023-11-21T13:34:21;3.90;;;1.10;;
83814;SDS011;73829;53.826;-3.034;2023-11-21T13:36:55;3.80;;;1.00;;
83814;SDS011;73829;53.826;-3.034;2023-11-21T13:39:28;3.50;;;1.00;;
83814;SDS011;73829;53.826;-3.034;2023-11-21T13:42:00;4.50;;;1.00;;
83814;SDS011;73829;53.826;-3.034;2023-11-21T13:44:33;5.30;;;1.00;;
83814;SDS011;73829;53.826;-3.034;2023-11-21T13:47:06;3.80;;;1.20;;
83814;SDS011;73829;53.826;-3.034;2023-11-21T13:49:37;4.10;;;1.00;;
83814;SDS011;73829;53.826;-3.034;2023-11-21T13:52:09;3.50;;;0.90;;
83814;SDS011;73829;53.826;-3.034;2023-11-21T13:54:44;5.70;;;1.00;;
83814;SDS011;73829;53.826;-3.034;2023-11-21T13:57:15;3.80;;;0.90;;
83814;SDS011;73829;53.826;-3.034;2023-11-21T13:59:47;2.80;;;0.90;;
83814;SDS011;73829;53.826;-3.034;2023-11-21T14:02:19;3.00;;;0.90;;
83814;SDS011;73829;53.826;-3.034;2023-11-21T14:04:59;3.90;;;0.80;;
83814;SDS011;73829;53.826;-3.034;2023-11-21T14:07:37;5.20;;;1.00;;
83814;SDS011;73829;53.826;-3.034;2023-11-21T14:10:15;3.30;;;1.10;;
83814;SDS011;73829;53.826;-3.034;2023-11-21T14:12:49;3.50;;;1.00;;
83814;SDS011;73829;53.826;-3.034;2023-11-21T14:17:50;5.30;;;1.30;;
83814;SDS011;73829;53.826;-3.034;2023-11-21T14:20:22;4.20;;;1.30;;
83814;SDS011;73829;53.826;-3.034;2023-11-21T14:22:53;3.90;;;1.50;;
83814;SDS011;73829;53.826;-3.034;2023-11-21T14:25:24;3.50;;;1.10;;
83814;SDS011;73829;53.826;-3.034;2023-11-21T14:27:56;4.00;;;1.00;;
83814;SDS011;73829;53.826;-3.034;2023-11-21T14:30:27;3.30;;;1.00;;
83814;SDS011;73829;53.826;-3.034;2023-11-21T14:32:59;3.20;;;0.90;;
83814;SDS011;73829;53.826;-3.034;2023-11-21T14:35:30;3.00;;;0.90;;
83814;SDS011;73829;53.826;-3.034;2023-11-21T14:38:02;2.90;;;0.80;;
83814;SDS011;73829;53.826;-3.034;2023-11-21T14:40:34;3.30;;;1.00;;
83814;SDS011;73829;53.826;-3.034;2023-11-21T14:43:05;4.30;;;1.10;;
83814;SDS011;73829;53.826;-3.034;2023-11-21T14:45:36;3.40;;;1.10;;
83814;SDS011;73829;53.826;-3.034;2023-11-21T14:48:07;4.70;;;1.10;;
83814;SDS011;73829;53.826;-3.034;2023-11-21T14:50:43;4.90;;;1.80;;
83814;SDS011;73829;53.826;-3.034;2023-11-21T14:53:38;4.50;;;1.60;;
83814;SDS011;73829;53.826;-3.034;2023-11-21T14:56:21;5.70;;;1.80;;
83814;SDS011;73829;53.826;-3.034;2023-11-21T14:58:57;4.20;;;1.60;;
83814;SDS011;73829;53.826;-3.034;2023-11-21T15:01:33;3.50;;;1.40;;
83814;SDS011;73829;53.826;-3.034;2023-11-21T15:04:14;3.40;;;1.30;;
83814;SDS011;73829;53.826;-3.034;2023-11-21T15:06:56;6.30;;;1.60;;
83814;SDS011;73829;53.826;-3.034;2023-11-21T15:09:27;3.80;;;1.40;;
83814;SDS011;73829;53.826;-3.034;2023-11-21T15:12:07;3.70;;;1.30;;
83814;SDS011;73829;53.826;-3.034;2023-11-21T15:14:43;4.10;;;1.40;;
83814;SDS011;73829;53.826;-3.034;2023-11-21T15:17:17;3.20;;;1.30;;
83814;SDS011;73829;53.826;-3.034;2023-11-21T15:19:53;4.70;;;1.40;;
83814;SDS011;73829;53.826;-3.034;2023-11-21T15:22:24;2.70;;;1.20;;
83814;SDS011;73829;53.826;-3.034;2023-11-21T15:24:56;4.10;;;1.50;;
83814;SDS011;73829;53.826;-3.034;2023-11-21T15:27:32;3.50;;;1.20;;
83814;SDS011;73829;53.826;-3.034;2023-11-21T15:30:04;3.40;;;1.20;;
83814;SDS011;73829;53.826;-3.034;2023-11-21T15:32:37;3.00;;;1.10;;
83814;SDS011;73829;53.826;-3.034;2023-11-21T15:35:08;2.90;;;1.30;;
83814;SDS011;73829;53.826;-3.034;2023-11-21T15:37:42;3.50;;;1.50;;
83814;SDS011;73829;53.826;-3.034;2023-11-21T15:40:13;3.40;;;1.20;;
83814;SDS011;73829;53.826;-3.034;2023-11-21T15:42:45;4.30;;;1.20;;